EW6020 Weather Reports


Display with metric or nautical units.
time (UTC)temp
F
wind
direction
speed
MPH
gust
MPH
rain 1hr
in
rain 24hr
in
rain mn
in
humidity
%
barometer
mb
20220626230037 93 304 7.0 10.0 0.00 0.00 0.00 28 1010.8
20220626224529 93 254 5.0 11.0 0.00 0.00 0.00 28 1010.9
20220626223026 93 279 7.0 12.0 0.00 0.00 0.00 28 1011.0
20220626221525 92 291 7.0 14.0 0.00 0.00 0.00 27 1011.1
20220626220017 93 290 4.0 10.0 0.00 0.00 0.00 27 1011.2
20220626214512 92 314 2.0 12.0 0.00 0.00 0.00 29 1011.3
20220626213008 92 27 1.0 9.0 0.00 0.00 0.00 29 1011.3
20220626211503 92 342 3.0 9.0 0.00 0.00 0.00 28 1011.4
20220626210103 91 326 8.0 13.0 0.00 0.00 0.00 27 1011.4
20220626204555 90 287 8.0 12.0 0.00 0.00 0.00 26 1011.5
20220626203050 90 300 8.0 12.0 0.00 0.00 0.00 27 1011.6
20220626201546 91 347 0.0 9.0 0.00 0.00 0.00 27 1011.8
20220626200042 90 278 0.0 8.0 0.00 0.00 0.00 29 1011.9
20220626194539 88 294 6.0 15.0 0.00 0.00 0.00 28 1012.1
20220626193037 88 296 8.0 13.0 0.00 0.00 0.00 30 1012.2
20220626191528 87 349 2.0 13.0 0.00 0.00 0.00 30 1012.2
20220626190024 86 290 8.0 14.0 0.00 0.00 0.00 30 1012.3
20220626184529 85 302 8.0 15.0 0.00 0.00 0.00 33 1012.5
20220626183014 84 301 9.0 15.0 0.00 0.00 0.00 32 1012.5
20220626181510 85 1 1.0 10.0 0.00 0.00 0.00 33 1012.5
20220626180009 84 290 6.0 11.0 0.00 0.00 0.00 34 1012.7
20220626174601 83 257 6.0 14.0 0.00 0.00 0.00 34 1012.8
20220626173057 82 291 5.0 12.0 0.00 0.00 0.00 34 1012.9
20220626171555 82 326 1.0 9.0 0.00 0.00 0.00 34 1012.9
20220626170100 80 302 7.0 14.0 0.00 0.00 0.00 35 1012.9
20220626164603 80 295 2.0 10.0 0.00 0.00 0.00 35 1013.0
20220626163040 80 355 3.0 10.0 0.00 0.00 0.00 34 1013.0
20220626161533 79 309 3.0 12.0 0.00 0.00 0.00 33 1013.0
20220626160028 78 339 0.0 11.0 0.00 0.00 0.00 35 1013.1
20220626154523 78 302 5.0 11.0 0.00 0.00 0.00 32 1013.2
20220626153023 77 293 1.0 9.0 0.00 0.00 0.00 34 1013.2
20220626151514 77 32 0.0 4.0 0.00 0.00 0.00 34 1013.1
20220626150010 77 302 1.0 8.0 0.00 0.00 0.00 34 1013.2
20220626144505 76 291 0.0 7.0 0.00 0.00 0.00 33 1013.1
20220626143121 0 0.0 0.0 0.00 0.00 0.00 1013.2
20220626141556 0 0.0 0.0 0.00 0.00 0.00 1013.1
20220626140052 0 0.0 0.0 0.00 0.00 0.00 1013.0
20220626134556 0 0.0 0.0 0.00 0.00 0.00 1012.8
20220626133043 0 0.0 0.0 0.00 0.00 0.00 1012.9
20220626131538 0 0.0 0.0 0.00 0.00 0.00 1012.8
20220626130035 164 42 0.0 9.0 0.00 0.00 0.00 1 1012.8
20220626124532 73 53 3.0 9.0 0.00 0.00 0.00 34 1012.8
20220626123030 73 294 0.0 11.0 0.00 0.00 0.00 34 1012.9
20220626121527 73 307 2.0 12.0 0.00 0.00 0.00 33 1013.0
20220626120032 73 356 1.0 6.0 0.00 0.00 0.00 33 1012.9
20220626114525 73 289 0.0 6.0 0.00 0.00 0.00 34 1013.0
20220626113024 73 281 0.0 7.0 0.00 0.00 0.00 33 1013.0
20220626111531 73 287 0.0 5.0 0.00 0.00 0.00 33 1013.0
20220626110021 74 249 0.0 5.0 0.00 0.00 0.00 33 1013.0
20220626104528 74 6 0.0 8.0 0.00 0.00 0.00 32 1013.0
20220626103022 75 307 0.0 10.0 0.00 0.00 0.00 31 1013.1
20220626101517 75 296 1.0 7.0 0.00 0.00 0.00 32 1013.0
20220626100018 75 295 2.0 11.0 0.00 0.00 0.00 31 1013.1
20220626094515 75 324 1.0 11.0 0.00 0.00 0.00 31 1013.1
20220626093015 75 252 1.0 8.0 0.00 0.00 0.00 31 1013.2
20220626091524 75 321 0.0 8.0 0.00 0.00 0.00 32 1013.3
20220626090013 75 309 1.0 6.0 0.00 0.00 0.00 31 1013.3
20220626084512 76 288 0.0 8.0 0.00 0.00 0.00 30 1013.3
20220626083012 75 320 3.0 12.0 0.00 0.00 0.00 32 1013.2
20220626081509 75 278 0.0 8.0 0.00 0.00 0.00 32 1013.2
20220626080008 75 354 2.0 7.0 0.00 0.00 0.00 31 1013.1
20220626074506 76 302 2.0 8.0 0.00 0.00 0.00 32 1013.1
20220626073015 78 307 3.0 7.0 0.00 0.00 0.00 27 1013.2
20220626071600 78 295 6.0 12.0 0.00 0.00 0.00 29 1013.1
20220626070106 78 295 3.0 9.0 0.00 0.00 0.00 29 1013.2
20220626064612 79 304 7.0 15.0 0.00 0.00 0.00 29 1013.2
20220626063057 78 297 5.0 10.0 0.00 0.00 0.00 28 1013.2
20220626061555 79 302 3.0 15.0 0.00 0.00 0.00 29 1013.1
20220626060102 80 265 1.0 13.0 0.00 0.00 0.00 28 1013.1
20220626054554 80 344 4.0 11.0 0.00 0.00 0.00 27 1013.1
20220626053053 80 44 0.0 7.0 0.00 0.00 0.00 27 1013.1
20220626051552 81 41 1.0 8.0 0.00 0.00 0.00 27 1012.9
20220626050054 81 353 2.0 12.0 0.00 0.00 0.00 26 1012.8
20220626044551 80 314 2.0 8.0 0.00 0.00 0.00 27 1012.6
20220626043050 81 38 3.0 13.0 0.00 0.00 0.00 28 1012.5
20220626041549 82 309 1.0 10.0 0.00 0.00 0.00 27 1012.5
20220626040052 82 271 3.0 11.0 0.00 0.00 0.00 27 1012.4
20220626034548 83 326 2.0 11.0 0.00 0.00 0.00 28 1012.3
20220626033047 85 359 2.0 10.0 0.00 0.00 0.00 27 1012.3
20220626031546 85 290 2.0 8.0 0.00 0.00 0.00 27 1012.2
20220626030045 86 299 5.0 11.0 0.00 0.00 0.00 25 1012.2
20220626024545 87 294 3.0 11.0 0.00 0.00 0.00 25 1012.1
20220626023047 88 330 6.0 10.0 0.00 0.00 0.00 24 1012.1
20220626021549 88 279 4.0 11.0 0.00 0.00 0.00 24 1012.0
20220626020041 89 300 4.0 12.0 0.00 0.00 0.00 24 1012.1
20220626014543 89 318 7.0 18.0 0.00 0.00 0.00 22 1012.2
20220626013043 90 324 5.0 16.0 0.00 0.00 0.00 22 1012.2
20220626011553 89 302 11.0 22.0 0.00 0.00 0.00 21 1012.2
20220626010037 90 293 4.0 17.0 0.00 0.00 0.00 22 1012.2
20220626004535 90 11 4.0 18.0 0.00 0.00 0.00 24 1012.4
20220626003036 89 316 8.0 21.0 0.00 0.00 0.00 22 1012.5
20220626001532 90 326 7.0 18.0 0.00 0.00 0.00 24 1012.4
20220626000031 90 335 5.0 14.0 0.00 0.00 0.00 24 1012.6
20220625234530 89 354 5.0 18.0 0.00 0.00 0.00 26 1012.7
20220625233027 89 349 8.0 20.0 0.00 0.00 0.00 24 1012.8
20220625231532 90 304 2.0 14.0 0.00 0.00 0.00 25 1012.9